Terminal Aerodrome Forecast
Issued by NWS

Current Version | Previous Version | Graphics & Text | Print | Product List | Glossary On
Versions: 1 2 3 4 5 6 7 8 9 10 11 12 13 14 15 16 17 18 19 20 21 22 23 24 25 26 27 28 29 30
000
FTUS41 KRLX 260248 AAA
TAFCKB
TAF AMD
KCKB 260248Z 2603/2624 05004KT P6SM BKN040
     FM260400 00000KT P6SM SKC
     FM260700 00000KT 3SM BR SKC
     FM260800 00000KT 1 1/2SM BR SCT001
     FM260900 00000KT 1/4SM FG VV001
     FM261300 00000KT 1SM BR BKN002
     FM261400 00000KT P6SM SKC
     FM261600 VRB03KT P6SM SCT020
     FM261900 VRB03KT P6SM SKC=

USA.gov is the U.S. government's official web portal to all federal, state and local government web resources and services.